createdAt,value
2018-08-23T00:01:39.060Z,6.30
2018-08-23T00:04:10.272Z,5.83
2018-08-23T00:06:54.010Z,6.45
2018-08-23T00:09:24.616Z,6.10
2018-08-23T00:11:57.207Z,6.40
2018-08-23T00:14:30.207Z,6.30
2018-08-23T00:17:00.365Z,7.05
2018-08-23T00:19:31.170Z,10.65
2018-08-23T00:22:02.781Z,18.75
2018-08-23T00:24:33.591Z,12.00
2018-08-23T00:27:06.783Z,12.40
2018-08-23T00:29:36.760Z,13.58
2018-08-23T00:32:08.263Z,14.10
2018-08-23T00:34:40.960Z,14.50
2018-08-23T00:37:14.048Z,14.55
2018-08-23T00:39:44.095Z,13.95
2018-08-23T00:42:15.887Z,14.00
2018-08-23T00:45:03.738Z,13.75
2018-08-23T00:47:34.984Z,14.25
2018-08-23T00:50:07.623Z,13.70
2018-08-23T00:52:46.346Z,14.35
2018-08-23T00:55:28.057Z,13.88
2018-08-23T00:57:59.100Z,14.65
2018-08-23T01:00:32.698Z,14.18
2018-08-23T01:03:04.567Z,14.53
2018-08-23T01:05:40.377Z,13.40
2018-08-23T01:08:12.849Z,15.03
2018-08-23T01:10:46.975Z,14.47
2018-08-23T01:13:17.446Z,14.83
2018-08-23T01:15:50.392Z,14.40
2018-08-23T01:18:21.452Z,15.30
2018-08-23T01:20:53.071Z,15.32
2018-08-23T01:23:25.985Z,14.58
2018-08-23T01:25:56.096Z,14.60
2018-08-23T01:28:28.140Z,15.68
2018-08-23T01:31:10.988Z,15.32
2018-08-23T01:33:41.273Z,15.63
2018-08-23T01:36:11.539Z,15.58
2018-08-23T01:38:41.865Z,15.55
2018-08-23T01:41:13.539Z,15.72
2018-08-23T01:43:46.107Z,16.15
2018-08-23T01:46:16.225Z,15.65
2018-08-23T01:48:53.764Z,16.52
2018-08-23T01:51:30.191Z,16.55
2018-08-23T01:54:00.448Z,15.65
2018-08-23T01:56:35.193Z,16.07
2018-08-23T01:59:05.683Z,17.05
2018-08-23T02:01:36.911Z,16.73
2018-08-23T02:04:09.864Z,17.80
2018-08-23T02:06:40.436Z,18.90
2018-08-23T02:09:12.961Z,18.50
2018-08-23T02:11:43.166Z,19.52
2018-08-23T02:14:13.309Z,19.20
2018-08-23T02:16:53.547Z,19.32
2018-08-23T02:19:25.775Z,19.10
2018-08-23T02:21:57.817Z,18.90
2018-08-23T02:24:32.548Z,18.92
2018-08-23T02:27:02.552Z,19.20
2018-08-23T02:29:41.976Z,19.52
2018-08-23T02:32:13.494Z,20.35
2018-08-23T02:34:48.216Z,21.70
2018-08-23T02:37:20.629Z,25.45
2018-08-23T02:39:50.672Z,25.57
2018-08-23T02:42:22.760Z,25.62
2018-08-23T02:45:03.066Z,25.97
2018-08-23T02:47:33.699Z,23.10
2018-08-23T02:50:06.934Z,25.48
2018-08-23T02:52:37.734Z,24.77
2018-08-23T02:55:09.953Z,24.02
2018-08-23T02:57:49.288Z,24.15
2018-08-23T03:00:23.564Z,23.73
2018-08-23T03:02:55.110Z,23.52
2018-08-23T03:05:24.956Z,25.65
2018-08-23T03:07:55.754Z,24.45
2018-08-23T03:10:25.888Z,25.75
2018-08-23T03:12:55.978Z,25.45
2018-08-23T03:15:26.098Z,26.17
2018-08-23T03:17:58.438Z,27.45
2018-08-23T03:20:28.739Z,29.77
2018-08-23T03:23:01.241Z,32.53
2018-08-23T03:25:32.103Z,31.70
2018-08-23T03:28:05.413Z,34.95
2018-08-23T03:30:36.708Z,33.92
2018-08-23T03:33:06.985Z,34.58
2018-08-23T03:35:37.106Z,35.03
2018-08-23T03:38:09.707Z,33.35
2018-08-23T03:40:40.828Z,32.45
2018-08-23T03:43:11.337Z,32.20
2018-08-23T03:45:42.209Z,33.00
2018-08-23T03:48:13.571Z,32.70
2018-08-23T03:50:49.622Z,34.13
2018-08-23T03:53:33.486Z,33.78
2018-08-23T03:56:23.972Z,37.00
2018-08-23T03:59:15.853Z,37.38
2018-08-23T04:15:39.705Z,33.00
2018-08-23T04:18:17.122Z,33.18
2018-08-23T04:20:56.968Z,33.28
2018-08-23T04:23:28.577Z,33.40
2018-08-23T04:25:59.959Z,30.75
2018-08-23T04:28:31.517Z,29.90
2018-08-23T04:31:03.037Z,30.23
2018-08-23T04:33:32.985Z,27.93
2018-08-23T04:36:04.176Z,29.18
2018-08-23T04:38:36.981Z,27.20
2018-08-23T04:41:11.345Z,27.10
2018-08-23T04:43:43.196Z,25.12
2018-08-23T04:46:18.234Z,26.60
2018-08-23T04:48:48.620Z,26.45
2018-08-23T04:51:20.721Z,26.52
2018-08-23T04:53:52.375Z,25.40
2018-08-23T04:56:23.245Z,26.05
2018-08-23T04:58:54.257Z,27.65
2018-08-23T05:01:24.635Z,24.32
2018-08-23T05:03:56.344Z,22.65
2018-08-23T05:06:27.366Z,24.30
2018-08-23T05:08:58.546Z,28.60
2018-08-23T05:11:28.852Z,22.60
2018-08-23T05:13:59.143Z,21.95
2018-08-23T05:16:30.430Z,20.60
2018-08-23T05:19:00.663Z,19.62
2018-08-23T05:21:32.519Z,21.33
2018-08-23T05:24:07.445Z,19.30
2018-08-23T05:26:37.832Z,19.48
2018-08-23T05:29:11.418Z,18.65
2018-08-23T05:31:42.496Z,20.15
2018-08-23T05:34:13.050Z,17.00
2018-08-23T05:36:44.187Z,16.82
2018-08-23T05:39:15.949Z,19.98
2018-08-23T05:41:48.554Z,19.10
2018-08-23T05:44:21.917Z,19.23
2018-08-23T05:46:56.943Z,21.07
2018-08-23T05:49:27.279Z,17.55
2018-08-23T05:52:01.523Z,17.85
2018-08-23T05:54:33.080Z,18.67
2018-08-23T05:57:04.448Z,17.92
2018-08-23T05:59:35.438Z,19.65
2018-08-23T06:02:11.896Z,16.87
2018-08-23T06:04:44.464Z,17.05
2018-08-23T06:07:15.527Z,17.07
2018-08-23T06:09:46.758Z,13.70
2018-08-23T06:12:18.480Z,14.00
2018-08-23T06:14:50.512Z,13.45
2018-08-23T06:19:49.133Z,12.05
2018-08-23T06:22:24.132Z,12.95
2018-08-23T06:24:54.592Z,12.88
2018-08-23T06:27:25.081Z,15.35
2018-08-23T06:29:56.316Z,14.25
2018-08-23T06:32:30.289Z,15.30
2018-08-23T06:35:05.210Z,15.00
2018-08-23T06:37:38.482Z,15.25
2018-08-23T06:40:10.983Z,16.87
2018-08-23T06:42:52.225Z,14.58
2018-08-23T06:45:24.389Z,14.58
2018-08-23T06:48:00.122Z,14.90
2018-08-23T06:50:31.063Z,15.53
2018-08-23T06:53:03.675Z,16.85
2018-08-23T06:55:38.489Z,16.25
2018-08-23T06:58:11.363Z,15.18
2018-08-23T07:00:41.948Z,14.15
2018-08-23T07:03:12.914Z,14.55
2018-08-23T07:05:45.507Z,14.53
2018-08-23T07:08:16.681Z,13.25
2018-08-23T07:10:49.877Z,14.13
2018-08-23T07:13:22.950Z,13.72
2018-08-23T07:16:00.541Z,12.30
2018-08-23T07:18:35.558Z,11.15
2018-08-23T07:21:07.359Z,12.78
2018-08-23T07:23:40.283Z,13.00
2018-08-23T07:26:12.308Z,12.23
2018-08-23T07:28:43.942Z,13.50
2018-08-23T07:31:43.734Z,18.87
2018-08-23T07:34:16.308Z,13.18
2018-08-23T07:36:48.064Z,15.25
2018-08-23T07:39:18.914Z,13.48
2018-08-23T07:41:49.109Z,9.48
2018-08-23T07:44:19.979Z,15.83
2018-08-23T07:46:51.080Z,16.23
2018-08-23T07:49:22.248Z,15.60
2018-08-23T07:51:53.925Z,15.80
2018-08-23T07:54:30.908Z,15.72
2018-08-23T07:57:01.137Z,16.07
2018-08-23T07:59:31.934Z,14.90
2018-08-23T08:02:03.522Z,16.05
2018-08-23T08:04:34.142Z,17.37
2018-08-23T08:07:04.830Z,18.75
2018-08-23T08:09:36.324Z,17.57
2018-08-23T08:12:07.051Z,19.37
2018-08-23T08:14:39.320Z,20.20
2018-08-23T08:17:18.391Z,18.85
2018-08-23T08:19:59.705Z,15.35
2018-08-23T08:22:30.232Z,20.00
2018-08-23T08:25:32.510Z,23.07
2018-08-23T08:28:02.832Z,20.70
2018-08-23T08:31:01.913Z,20.55
2018-08-23T08:33:39.562Z,21.40
2018-08-23T08:36:09.787Z,21.70
2018-08-23T08:38:40.130Z,21.23
2018-08-23T08:41:10.371Z,19.90
2018-08-23T08:43:44.061Z,18.42
2018-08-23T08:46:14.812Z,16.48
2018-08-23T08:48:45.519Z,23.30
2018-08-23T08:51:28.534Z,22.52
2018-08-23T08:54:01.573Z,23.65
2018-08-23T08:56:37.302Z,23.00
2018-08-23T08:59:08.029Z,24.07
2018-08-23T09:01:44.676Z,24.10
2018-08-23T09:04:21.745Z,22.15
2018-08-23T09:06:56.468Z,24.43
2018-08-23T09:09:40.967Z,21.50
2018-08-23T09:12:14.506Z,23.92
2018-08-23T09:14:46.938Z,24.37
2018-08-23T09:17:51.953Z,25.82
2018-08-23T09:20:23.190Z,24.72
2018-08-23T09:22:56.958Z,20.15
2018-08-23T09:25:33.707Z,25.60
2018-08-23T09:28:04.914Z,24.52
2018-08-23T09:30:38.636Z,23.50
2018-08-23T09:33:16.059Z,25.65
2018-08-23T09:35:49.352Z,20.60
2018-08-23T09:38:23.573Z,17.57
2018-08-23T09:40:57.245Z,21.48
2018-08-23T09:43:34.604Z,26.17
2018-08-23T09:46:09.547Z,27.60
2018-08-23T09:48:43.320Z,26.40
2018-08-23T09:51:22.603Z,26.70
2018-08-23T09:53:54.813Z,24.15
2018-08-23T09:56:31.686Z,24.87
2018-08-23T09:59:08.613Z,26.12
2018-08-23T10:01:47.302Z,24.55
2018-08-23T10:04:29.675Z,23.85
2018-08-23T10:10:16.953Z,25.23
2018-08-23T10:12:58.078Z,25.50
2018-08-23T10:15:34.421Z,24.07
2018-08-23T10:18:15.620Z,18.07
2018-08-23T10:20:52.756Z,17.50
2018-08-23T10:23:25.611Z,18.40
2018-08-23T10:25:58.451Z,25.62
2018-08-23T10:29:00.164Z,23.83
2018-08-23T10:31:30.257Z,21.95
2018-08-23T10:34:00.674Z,24.92
2018-08-23T10:36:31.192Z,11.97
2018-08-23T10:39:02.797Z,19.30
2018-08-23T10:41:33.581Z,18.92
2018-08-23T10:44:04.643Z,18.85
2018-08-23T10:46:41.171Z,14.05
2018-08-23T10:49:11.513Z,18.27
2018-08-23T10:51:42.346Z,16.40
2018-08-23T10:54:12.407Z,17.98
2018-08-23T10:56:42.489Z,12.00
2018-08-23T10:59:13.650Z,14.25
2018-08-23T11:01:44.920Z,12.50
2018-08-23T11:04:16.552Z,17.23
2018-08-23T11:06:51.644Z,16.07
2018-08-23T11:09:27.054Z,14.93
2018-08-23T11:11:57.707Z,13.90
2018-08-23T11:14:32.808Z,13.65
2018-08-23T11:17:08.583Z,16.12
2018-08-23T11:19:43.926Z,13.65
2018-08-23T11:22:14.223Z,10.08
2018-08-23T11:24:47.631Z,15.30
2018-08-23T11:27:17.679Z,12.43
2018-08-23T11:29:48.162Z,15.90
2018-08-23T11:32:19.164Z,16.52
2018-08-23T11:34:49.471Z,15.78
2018-08-23T11:37:20.301Z,14.35
2018-08-23T11:39:51.848Z,14.00
2018-08-23T11:42:22.113Z,12.73
2018-08-23T11:44:52.781Z,10.40
2018-08-23T11:47:22.915Z,15.68
2018-08-23T11:49:53.468Z,14.68
2018-08-23T11:52:23.721Z,16.20
2018-08-23T11:54:53.960Z,14.05
2018-08-23T11:57:24.019Z,15.95
2018-08-23T11:59:54.369Z,16.15
2018-08-23T12:02:24.475Z,8.93
2018-08-23T12:04:54.343Z,16.02
2018-08-23T12:07:24.771Z,15.18
2018-08-23T12:09:55.003Z,16.12
2018-08-23T12:12:25.294Z,15.38
2018-08-23T12:14:55.484Z,15.28
2018-08-23T12:17:25.487Z,18.55
2018-08-23T12:19:55.824Z,16.27
2018-08-23T12:22:33.081Z,16.45
2018-08-23T12:25:10.612Z,16.20
2018-08-23T12:27:43.392Z,9.40
2018-08-23T12:30:15.321Z,15.05
2018-08-23T12:32:47.134Z,10.85
2018-08-23T12:35:17.332Z,11.88
2018-08-23T12:39:00.018Z,12.98
2018-08-23T12:41:36.629Z,13.62
2018-08-23T12:44:09.108Z,15.75
2018-08-23T12:46:43.957Z,15.63
2018-08-23T12:49:15.462Z,15.58
2018-08-23T12:51:47.512Z,15.80
2018-08-23T12:54:21.276Z,15.38
2018-08-23T12:56:53.931Z,8.93
2018-08-23T12:59:24.143Z,16.67
2018-08-23T13:02:06.176Z,13.20
2018-08-23T13:04:40.796Z,16.23
2018-08-23T13:07:11.574Z,16.52
2018-08-23T13:09:42.985Z,16.87
2018-08-23T13:12:13.216Z,13.28
2018-08-23T13:14:43.284Z,16.80
2018-08-23T13:17:14.346Z,15.85
2018-08-23T13:19:44.583Z,17.20
2018-08-23T13:25:12.236Z,12.65
2018-08-23T13:27:42.670Z,14.03
2018-08-23T13:30:12.772Z,13.48
2018-08-23T13:32:43.107Z,18.67
2018-08-23T13:35:13.158Z,18.02
2018-08-23T13:37:43.758Z,18.30
2018-08-23T13:40:18.066Z,19.55
2018-08-23T13:42:49.726Z,17.95
2018-08-23T13:45:19.842Z,18.77
2018-08-23T13:47:52.267Z,18.82
2018-08-23T13:50:22.934Z,19.35
2018-08-23T13:52:53.163Z,12.58
2018-08-23T13:55:24.689Z,19.82
2018-08-23T13:57:54.737Z,18.27
2018-08-23T14:00:29.554Z,15.75
2018-08-23T14:03:00.595Z,19.12
2018-08-23T14:05:31.645Z,20.37
2018-08-23T14:08:02.899Z,11.45
2018-08-23T14:10:33.045Z,21.77
2018-08-23T14:13:03.943Z,15.05
2018-08-23T14:15:39.233Z,21.12
2018-08-23T14:18:09.400Z,22.95
2018-08-23T14:20:40.116Z,21.62
2018-08-23T14:23:10.463Z,22.87
2018-08-23T14:25:40.918Z,22.32
2018-08-23T14:28:11.347Z,21.87
2018-08-23T14:30:41.813Z,22.52
2018-08-23T14:33:12.159Z,12.98
2018-08-23T14:35:42.589Z,19.73
2018-08-23T14:38:12.752Z,24.37
2018-08-23T14:40:43.234Z,19.27
2018-08-23T14:43:13.787Z,22.60
2018-08-23T14:45:44.047Z,21.68
2018-08-23T14:48:16.696Z,16.67
2018-08-23T14:50:50.888Z,21.27
2018-08-23T14:56:22.797Z,20.80
2018-08-23T14:58:52.908Z,20.32
2018-08-23T15:01:23.963Z,21.40
2018-08-23T15:03:54.959Z,20.70
2018-08-23T15:06:24.924Z,20.27
2018-08-23T15:08:54.583Z,23.07
2018-08-23T15:11:24.596Z,18.07
2018-08-23T15:13:56.134Z,20.20
2018-08-23T15:16:25.973Z,17.32
2018-08-23T15:18:55.596Z,11.22
2018-08-23T15:21:25.595Z,17.32
2018-08-23T15:23:59.170Z,13.10
2018-08-23T15:26:29.407Z,15.48
2018-08-23T15:28:58.920Z,14.55
2018-08-23T15:31:28.553Z,14.15
2018-08-23T15:33:58.767Z,12.75
2018-08-23T15:36:29.307Z,11.70
2018-08-23T15:38:58.880Z,11.05
2018-08-23T15:41:29.318Z,13.32
2018-08-23T15:44:02.824Z,12.85
2018-08-23T15:46:38.355Z,12.10
2018-08-23T15:49:10.834Z,12.53
2018-08-23T15:51:41.377Z,11.25
2018-08-23T15:54:12.996Z,15.30
2018-08-23T15:56:43.678Z,12.65
2018-08-23T15:59:15.023Z,15.28
2018-08-23T16:01:44.637Z,14.93
2018-08-23T16:04:15.451Z,16.40
2018-08-23T16:06:45.369Z,14.45
2018-08-23T16:09:17.289Z,10.30
2018-08-23T16:11:47.977Z,16.25
2018-08-23T16:14:18.160Z,14.75
2018-08-23T16:16:54.585Z,13.65
2018-08-23T16:19:30.654Z,12.88
2018-08-23T16:22:02.210Z,14.28
2018-08-23T16:24:32.968Z,13.90
2018-08-23T16:27:05.551Z,12.78
2018-08-23T16:29:35.839Z,12.58
2018-08-23T16:32:10.073Z,11.03
2018-08-23T16:34:41.035Z,9.83
2018-08-23T16:37:12.039Z,7.33
2018-08-23T16:39:43.181Z,9.75
2018-08-23T16:42:16.382Z,13.68
2018-08-23T16:44:47.873Z,12.58
2018-08-23T16:47:19.145Z,11.83
2018-08-23T16:49:50.592Z,10.65
2018-08-23T16:52:20.666Z,10.78
2018-08-23T16:54:51.674Z,8.90
2018-08-23T16:57:23.554Z,9.35
2018-08-23T16:59:53.903Z,10.43
2018-08-23T17:02:24.701Z,9.78
2018-08-23T17:04:55.125Z,9.00
2018-08-23T17:07:25.864Z,9.68
2018-08-23T17:09:56.246Z,9.55
2018-08-23T17:12:26.190Z,9.80
2018-08-23T17:14:58.446Z,10.90
2018-08-23T17:17:32.443Z,10.15
2018-08-23T17:20:02.755Z,9.70
2018-08-23T17:22:32.712Z,9.25
2018-08-23T17:25:02.861Z,9.83
2018-08-23T17:27:33.772Z,9.55
2018-08-23T17:30:04.310Z,9.80
2018-08-23T17:32:34.521Z,9.85
2018-08-23T17:35:04.789Z,9.40
2018-08-23T17:37:35.381Z,9.30
2018-08-23T17:40:07.163Z,10.15
2018-08-23T17:42:43.672Z,10.68
2018-08-23T17:45:15.144Z,9.40
2018-08-23T17:47:45.848Z,7.42
2018-08-23T17:50:15.989Z,10.60
2018-08-23T17:52:47.169Z,10.78
2018-08-23T17:55:19.102Z,11.68
2018-08-23T17:57:49.465Z,8.43
2018-08-23T18:00:19.649Z,11.12
2018-08-23T18:02:50.684Z,8.18
2018-08-23T18:05:21.018Z,9.73
2018-08-23T18:07:51.122Z,11.93
2018-08-23T18:10:21.376Z,9.35
2018-08-23T18:12:51.394Z,10.82
2018-08-23T18:15:21.483Z,12.45
2018-08-23T18:17:51.847Z,9.68
2018-08-23T18:20:21.967Z,9.80
2018-08-23T18:22:52.151Z,11.15
2018-08-23T18:25:22.301Z,9.20
2018-08-23T18:27:53.105Z,11.70
2018-08-23T18:30:23.211Z,11.83
2018-08-23T18:32:53.540Z,11.20
2018-08-23T18:35:26.473Z,10.15
2018-08-23T18:37:56.769Z,11.93
2018-08-23T18:40:26.750Z,11.93
2018-08-23T18:42:57.794Z,12.85
2018-08-23T18:45:28.011Z,12.65
2018-08-23T18:47:58.385Z,13.28
2018-08-23T18:50:29.608Z,13.10
2018-08-23T18:53:00.254Z,12.70
2018-08-23T19:05:07.830Z,12.73
2018-08-23T19:42:23.178Z,13.10
2018-08-23T19:44:57.194Z,13.43
2018-08-23T19:47:32.872Z,12.75
2018-08-23T19:50:10.744Z,13.78
2018-08-23T19:52:43.528Z,12.80
2018-08-23T19:55:15.388Z,13.60
2018-08-23T19:57:48.472Z,13.00
2018-08-23T20:00:20.725Z,14.70
2018-08-23T20:02:53.023Z,14.93
2018-08-23T20:05:26.661Z,13.85
2018-08-23T20:07:57.727Z,13.70
2018-08-23T20:10:29.555Z,15.08
2018-08-23T20:13:00.601Z,14.63
2018-08-23T20:15:39.777Z,15.05
2018-08-23T20:18:13.730Z,14.47
2018-08-23T20:20:47.730Z,13.70
2018-08-23T20:23:21.209Z,14.95
2018-08-23T20:25:51.527Z,15.15
2018-08-23T20:28:22.000Z,14.30
2018-08-23T20:30:52.371Z,13.62
2018-08-23T20:33:22.618Z,14.63
2018-08-23T20:35:52.627Z,15.10
2018-08-23T20:38:22.679Z,14.47
2018-08-23T20:40:52.848Z,14.00
2018-08-23T20:43:23.092Z,14.70
2018-08-23T20:45:53.519Z,14.73
2018-08-23T20:48:25.224Z,14.95
2018-08-23T20:50:55.322Z,14.90
2018-08-23T20:53:25.377Z,14.80
2018-08-23T20:55:55.547Z,14.73
2018-08-23T20:58:25.782Z,15.18
2018-08-23T21:00:57.042Z,15.08
2018-08-23T21:03:28.836Z,15.48
2018-08-23T21:05:59.671Z,15.58
2018-08-23T21:08:35.313Z,16.30
2018-08-23T21:11:07.575Z,16.40
2018-08-23T21:13:38.624Z,16.42
2018-08-23T21:16:09.644Z,15.50
2018-08-23T21:18:40.945Z,15.13
2018-08-23T21:21:17.302Z,15.68
2018-08-23T21:23:48.418Z,15.80
2018-08-23T21:26:20.974Z,16.25
2018-08-23T21:28:51.774Z,16.07
2018-08-23T21:31:23.359Z,15.38
2018-08-23T21:33:54.947Z,15.90
2018-08-23T21:36:27.136Z,16.02
2018-08-23T21:38:57.565Z,16.95
2018-08-23T21:41:29.856Z,15.30
2018-08-23T21:44:00.279Z,15.50
2018-08-23T21:46:30.595Z,16.30
2018-08-23T21:49:00.928Z,16.85
2018-08-23T21:51:31.747Z,16.93
2018-08-23T21:54:04.403Z,16.10
2018-08-23T21:56:35.475Z,16.57
2018-08-23T21:59:06.746Z,17.02
2018-08-23T22:01:36.963Z,15.72
2018-08-23T22:04:07.319Z,16.02
2018-08-23T22:06:38.357Z,15.88
2018-08-23T22:09:10.975Z,16.05
2018-08-23T22:11:41.407Z,16.30
2018-08-23T22:14:11.533Z,17.55
2018-08-23T22:16:41.557Z,16.80
2018-08-23T22:19:11.615Z,16.48
2018-08-23T22:21:41.828Z,16.95
2018-08-23T22:24:11.949Z,16.57
2018-08-23T22:26:42.410Z,17.98
2018-08-23T22:29:13.340Z,18.82
2018-08-23T22:31:43.523Z,18.70
2018-08-23T22:34:14.063Z,13.83
2018-08-23T22:36:47.373Z,16.65
2018-08-23T22:39:17.508Z,17.92
2018-08-23T22:41:47.573Z,19.05
2018-08-23T22:44:17.793Z,20.55
2018-08-23T22:46:48.221Z,17.90
2018-08-23T22:49:48.143Z,18.45
2018-08-23T22:52:18.812Z,18.77
2018-08-23T22:54:49.010Z,20.32
2018-08-23T22:57:20.670Z,19.82
2018-08-23T22:59:51.822Z,19.45
2018-08-23T23:02:28.577Z,15.43
2018-08-23T23:05:00.287Z,17.65
2018-08-23T23:07:30.287Z,18.57
2018-08-23T23:10:00.892Z,16.48
2018-08-23T23:12:33.858Z,19.20
2018-08-23T23:15:07.507Z,19.65
2018-08-23T23:17:37.486Z,20.37
2018-08-23T23:20:07.853Z,17.00
2018-08-23T23:22:38.194Z,19.02
2018-08-23T23:25:08.281Z,18.45
2018-08-23T23:27:38.591Z,18.52
2018-08-23T23:30:10.646Z,19.55
2018-08-23T23:32:40.861Z,14.03
2018-08-23T23:35:10.823Z,12.23
2018-08-23T23:37:40.831Z,20.12
2018-08-23T23:40:10.938Z,17.57
2018-08-23T23:42:40.946Z,18.60
2018-08-23T23:45:12.967Z,18.85
2018-08-23T23:47:43.046Z,17.00
2018-08-23T23:50:13.127Z,17.73
2018-08-23T23:52:43.165Z,17.12
2018-08-23T23:55:13.192Z,17.85
2018-08-23T23:57:43.275Z,11.85
